Time;durP1;ratioP1;P1;durP2;ratioP2;P2;SDS_P1;SDS_P2;PMS_P1;PMS_P2;Temp;Humidity;BMP_temperature;BMP_pressure;BME280_temperature;BME280_humidity;BME280_pressure;Samples;Min_cycle;Max_cycle;Signal;HPM_P1;HPM_P2
2021/06/09 00:02:23;;;;;;;3.40;1.80;;;17.10;99.90;;;;;;5059202;28;20391;-54
2021/06/09 00:04:49;;;;;;;4.32;1.85;;;16.60;99.90;;;;;;5063171;28;20433;-50
2021/06/09 00:07:14;;;;;;;4.70;2.23;;;17.10;99.90;;;;;;5057978;28;20826;-52
2021/06/09 00:09:40;;;;;;;2.90;0.93;;;17.10;99.90;;;;;;5060131;28;20399;-50
2021/06/09 00:12:06;;;;;;;6.10;1.60;;;17.20;99.90;;;;;;5062391;28;20844;-50
2021/06/09 00:14:32;;;;;;;3.60;2.20;;;17.20;99.90;;;;;;5062751;28;20395;-49
2021/06/09 00:16:58;;;;;;;3.60;1.83;;;17.20;99.90;;;;;;5050334;28;20773;-51
2021/06/09 00:19:27;;;;;;;3.08;1.02;;;17.20;99.90;;;;;;5048788;28;20797;-54
2021/06/09 00:21:55;;;;;;;4.65;1.58;;;17.30;99.90;;;;;;5051439;28;20385;-50
2021/06/09 00:24:21;;;;;;;2.85;1.10;;;17.30;99.90;;;;;;5070008;28;20399;-50
2021/06/09 00:26:47;;;;;;;3.20;1.25;;;17.30;99.90;;;;;;5069248;28;21131;-49
2021/06/09 00:29:13;;;;;;;2.90;1.10;;;17.30;99.90;;;;;;5070160;28;20737;-50
2021/06/09 00:31:39;;;;;;;3.53;1.40;;;17.30;99.90;;;;;;5069383;28;20380;-50
2021/06/09 00:34:05;;;;;;;3.08;1.27;;;17.30;99.90;;;;;;5070235;28;20495;-50
2021/06/09 00:36:31;;;;;;;2.60;0.60;;;17.30;99.90;;;;;;5061930;28;20934;-50
2021/06/09 00:38:57;;;;;;;3.40;0.90;;;17.40;99.90;;;;;;5060934;28;20395;-50
2021/06/09 00:41:22;;;;;;;4.00;1.50;;;17.40;99.90;;;;;;5085441;28;20413;-49
2021/06/09 00:43:48;;;;;;;3.55;1.52;;;17.50;99.90;;;;;;5050883;28;20421;-50
2021/06/09 00:46:14;;;;;;;4.60;1.90;;;17.40;99.90;;;;;;5060182;28;20469;-50
2021/06/09 00:48:42;;;;;;;2.85;1.00;;;17.30;99.90;;;;;;5057093;28;20385;-49
2021/06/09 00:51:16;;;;;;;4.78;0.70;;;17.40;99.90;;;;;;5049410;28;20373;-50
2021/06/09 00:53:50;;;;;;;3.10;1.08;;;17.40;99.90;;;;;;5063247;28;20371;-50
2021/06/09 00:56:17;;;;;;;4.00;1.30;;;17.40;99.90;;;;;;5068452;28;20849;-49
2021/06/09 00:58:45;;;;;;;3.88;1.70;;;17.40;99.90;;;;;;5048498;28;20801;-49
2021/06/09 01:01:12;;;;;;;7.50;2.47;;;17.40;99.90;;;;;;5049251;28;20381;-49
2021/06/09 01:03:39;;;;;;;3.57;1.60;;;17.40;99.90;;;;;;5051528;28;20440;-49
2021/06/09 01:06:05;;;;;;;3.90;1.60;;;17.30;99.90;;;;;;5069729;28;20437;-49
2021/06/09 01:08:34;;;;;;;3.33;1.60;;;17.30;99.90;;;;;;5068884;28;20376;-49
2021/06/09 01:10:59;;;;;;;3.40;1.30;;;17.20;99.90;;;;;;5069575;28;20437;-49
2021/06/09 01:13:29;;;;;;;5.13;1.23;;;17.10;99.90;;;;;;5069254;28;20403;-54
2021/06/09 01:15:56;;;;;;;3.70;1.70;;;17.00;99.90;;;;;;5069491;28;20491;-49
2021/06/09 01:18:22;;;;;;;3.20;1.40;;;17.00;99.90;;;;;;5051330;28;20377;-50
2021/06/09 01:20:49;;;;;;;5.80;2.40;;;17.10;99.90;;;;;;5048710;28;20425;-50
2021/06/09 01:23:15;;;;;;;3.40;1.27;;;17.10;99.90;;;;;;5049429;28;20862;-49
2021/06/09 01:25:42;;;;;;;3.70;2.00;;;17.10;99.90;;;;;;5049579;28;20397;-49
2021/06/09 01:28:08;;;;;;;3.00;1.00;;;17.20;99.90;;;;;;5053448;28;20395;-49
2021/06/09 01:30:35;;;;;;;3.50;0.60;;;17.20;99.90;;;;;;5052650;28;20739;-50
2021/06/09 01:33:01;;;;;;;4.60;2.50;;;17.10;99.90;;;;;;5053294;28;20397;-49
2021/06/09 01:35:27;;;;;;;3.90;1.80;;;17.20;99.90;;;;;;5052650;28;20879;-53
2021/06/09 01:37:53;;;;;;;4.22;1.13;;;17.20;99.90;;;;;;5052745;28;20385;-49
2021/06/09 01:40:24;;;;;;;2.88;0.95;;;17.20;99.90;;;;;;5053171;28;20384;-50
2021/06/09 01:42:51;;;;;;;5.10;1.83;;;17.20;99.90;;;;;;5052600;28;20380;-49
2021/06/09 01:45:19;;;;;;;3.50;1.20;;;17.20;99.90;;;;;;5052984;28;20392;-49
2021/06/09 01:47:45;;;;;;;47.63;29.60;;;17.10;99.90;;;;;;5052384;28;20377;-49
2021/06/09 01:50:12;;;;;;;50.85;32.50;;;17.20;99.90;;;;;;5053003;28;20740;-49
2021/06/09 01:52:39;;;;;;;52.30;31.45;;;17.30;99.90;;;;;;5051814;28;20465;-51
2021/06/09 01:55:08;;;;;;;50.67;30.75;;;17.40;99.90;;;;;;5052680;28;20954;-49
2021/06/09 01:57:34;;;;;;;56.47;32.17;;;17.50;99.90;;;;;;5052371;28;20381;-49
2021/06/09 02:00:02;;;;;;;52.17;31.00;;;17.50;99.90;;;;;;5052795;28;20414;-50
2021/06/09 02:02:28;;;;;;;61.72;32.83;;;17.50;99.90;;;;;;5052373;28;20382;-54
2021/06/09 02:04:54;;;;;;;71.43;33.97;;;17.40;99.90;;;;;;5051895;28;20470;-49
2021/06/09 02:07:20;;;;;;;60.25;34.90;;;17.30;99.90;;;;;;5052666;28;20377;-51
2021/06/09 02:09:46;;;;;;;59.40;33.30;;;17.40;99.90;;;;;;5051832;28;20420;-50
2021/06/09 02:12:11;;;;;;;58.70;34.47;;;17.40;99.90;;;;;;5052455;28;20382;-50
2021/06/09 02:14:37;;;;;;;70.15;34.95;;;17.30;99.90;;;;;;5051589;28;20889;-50
2021/06/09 02:17:05;;;;;;;68.67;37.30;;;17.30;99.90;;;;;;5051056;28;20739;-50
2021/06/09 02:19:31;;;;;;;63.38;34.95;;;17.30;99.90;;;;;;5051763;28;20525;-54
2021/06/09 02:21:57;;;;;;;63.13;35.55;;;17.30;99.90;;;;;;5052243;28;20389;-50
2021/06/09 02:24:23;;;;;;;67.53;35.50;;;17.30;99.90;;;;;;5051920;28;20755;-50
2021/06/09 02:26:51;;;;;;;61.78;32.80;;;17.30;99.90;;;;;;5051536;28;20369;-51
2021/06/09 02:29:17;;;;;;;63.45;36.17;;;17.20;99.90;;;;;;5052052;28;20461;-50
2021/06/09 02:31:49;;;;;;;72.47;37.13;;;17.20;99.90;;;;;;5051509;28;20417;-50
2021/06/09 02:34:18;;;;;;;69.85;36.90;;;17.20;99.90;;;;;;5052075;28;20867;-50
2021/06/09 02:36:47;;;;;;;101.10;40.45;;;17.20;99.90;;;;;;5050973;28;20476;-50
2021/06/09 02:39:14;;;;;;;89.72;39.58;;;17.10;99.90;;;;;;5052016;28;20381;-50
2021/06/09 02:41:39;;;;;;;86.47;38.85;;;17.00;99.90;;;;;;5051133;28;20435;-50
2021/06/09 02:44:06;;;;;;;72.33;37.20;;;17.00;99.90;;;;;;5052001;28;20410;-50
2021/06/09 02:46:35;;;;;;;71.05;37.45;;;17.10;99.90;;;;;;5051283;28;20373;-50
2021/06/09 02:49:06;;;;;;;73.22;36.72;;;17.10;99.90;;;;;;5052026;28;20392;-50
2021/06/09 02:51:39;;;;;;;66.63;35.17;;;17.20;99.90;;;;;;5051354;28;20380;-54
2021/06/09 02:54:10;;;;;;;61.90;34.22;;;17.00;99.90;;;;;;5051926;28;20385;-50
2021/06/09 02:56:47;;;;;;;62.25;34.15;;;16.90;99.90;;;;;;5051036;28;20432;-49
2021/06/09 02:59:39;;;;;;;60.35;34.45;;;16.90;99.90;;;;;;5051533;28;20397;-50
2021/06/09 03:02:12;;;;;;;69.60;36.05;;;17.00;99.90;;;;;;5051428;28;20385;-50
2021/06/09 03:05:03;;;;;;;73.07;36.13;;;17.00;99.90;;;;;;5050053;28;20422;-50
2021/06/09 03:07:41;;;;;;;76.88;37.13;;;17.00;99.90;;;;;;5050908;28;20400;-54
2021/06/09 03:10:10;;;;;;;61.97;33.65;;;16.90;99.90;;;;;;5051112;28;20382;-50
2021/06/09 03:12:47;;;;;;;65.15;34.60;;;17.00;99.90;;;;;;5050248;28;20390;-50
2021/06/09 03:15:18;;;;;;;64.28;34.05;;;17.00;99.90;;;;;;5048821;28;20731;-50
2021/06/09 03:18:04;;;;;;;58.10;33.25;;;17.10;99.90;;;;;;5049986;28;20408;-50
2021/06/09 03:20:52;;;;;;;56.55;32.60;;;17.20;99.90;;;;;;5048964;28;20393;-54
2021/06/09 03:23:23;;;;;;;54.72;34.05;;;17.10;99.90;;;;;;5050437;28;20382;-50
2021/06/09 03:25:53;;;;;;;60.03;33.00;;;17.10;99.90;;;;;;5049486;28;21065;-50
2021/06/09 03:28:46;;;;;;;56.17;31.48;;;17.10;99.90;;;;;;5050389;28;20401;-50
2021/06/09 03:31:19;;;;;;;58.00;33.65;;;17.00;99.90;;;;;;5046464;28;20397;-49
2021/06/09 03:33:49;;;;;;;56.83;32.97;;;17.00;99.90;;;;;;5046191;28;20774;-49
2021/06/09 03:36:26;;;;;;;55.05;33.60;;;17.00;99.90;;;;;;5049274;28;20828;-50
2021/06/09 03:38:59;;;;;;;63.07;35.37;;;17.00;99.90;;;;;;5048579;28;20902;-50
2021/06/09 03:41:30;;;;;;;54.70;33.20;;;17.10;99.90;;;;;;5048124;28;20397;-50
2021/06/09 03:43:58;;;;;;;57.28;33.17;;;17.10;99.90;;;;;;5049763;28;20944;-50
2021/06/09 03:46:25;;;;;;;62.85;34.10;;;17.20;99.90;;;;;;5047849;28;20439;-50
2021/06/09 03:48:54;;;;;;;58.90;33.40;;;17.10;99.90;;;;;;5048722;28;20457;-50
2021/06/09 03:51:22;;;;;;;50.67;31.25;;;17.10;99.90;;;;;;5050205;28;20852;-50
2021/06/09 03:53:49;;;;;;;56.72;34.30;;;17.00;99.90;;;;;;5049359;28;20386;-50
2021/06/09 03:56:18;;;;;;;55.10;33.45;;;17.00;99.90;;;;;;5050463;28;20459;-50
2021/06/09 03:58:44;;;;;;;59.58;34.45;;;16.90;99.90;;;;;;5058289;28;20380;-49
2021/06/09 04:01:11;;;;;;;58.55;33.28;;;17.00;99.90;;;;;;5060874;28;21162;-50
2021/06/09 04:03:39;;;;;;;64.72;34.45;;;17.00;99.90;;;;;;5058268;28;20413;-50
2021/06/09 04:06:07;;;;;;;63.67;35.75;;;17.10;99.90;;;;;;5058861;28;20395;-50
2021/06/09 04:08:35;;;;;;;66.93;35.80;;;17.20;99.90;;;;;;5060651;28;20395;-50
2021/06/09 04:11:02;;;;;;;55.90;34.17;;;17.30;99.90;;;;;;5058759;28;20950;-50
2021/06/09 04:13:29;;;;;;;60.58;34.92;;;17.10;99.90;;;;;;5061463;28;20416;-50
2021/06/09 04:15:57;;;;;;;70.75;36.15;;;17.20;99.90;;;;;;5069502;28;20388;-50
2021/06/09 04:18:23;;;;;;;63.28;34.83;;;17.30;99.90;;;;;;5070299;28;20825;-50
2021/06/09 04:20:50;;;;;;;55.40;34.10;;;17.30;99.90;;;;;;5069397;28;20558;-50
2021/06/09 04:23:16;;;;;;;56.63;34.00;;;17.30;99.90;;;;;;5069996;28;20876;-50
2021/06/09 04:25:42;;;;;;;54.08;32.75;;;17.30;99.90;;;;;;5068945;28;20403;-50
2021/06/09 04:28:10;;;;;;;60.70;35.30;;;17.30;99.90;;;;;;5070341;28;20382;-49
2021/06/09 04:30:36;;;;;;;62.85;35.22;;;17.40;99.90;;;;;;5069027;28;20390;-50
2021/06/09 04:33:06;;;;;;;65.25;36.17;;;17.40;99.90;;;;;;5069783;28;20853;-51
2021/06/09 04:35:38;;;;;;;66.70;37.75;;;17.40;99.90;;;;;;5069556;28;20866;-50
2021/06/09 04:38:05;;;;;;;62.97;35.75;;;17.40;99.90;;;;;;5069742;28;20474;-50
2021/06/09 04:40:32;;;;;;;64.90;36.63;;;17.40;99.90;;;;;;5069562;28;20394;-54
2021/06/09 04:42:58;;;;;;;55.10;34.10;;;17.50;99.90;;;;;;5069218;28;20471;-50
2021/06/09 04:45:26;;;;;;;53.00;33.10;;;17.60;99.90;;;;;;5069824;28;20746;-50
2021/06/09 04:47:51;;;;;;;49.78;32.35;;;17.70;99.90;;;;;;5067282;28;20391;-51
2021/06/09 04:50:20;;;;;;;48.77;32.73;;;17.80;99.90;;;;;;5067444;28;20376;-50
2021/06/09 04:52:46;;;;;;;48.10;32.63;;;17.80;99.90;;;;;;5048730;28;20382;-50
2021/06/09 04:55:13;;;;;;;48.00;33.15;;;18.00;99.90;;;;;;5047089;28;20397;-50
2021/06/09 04:57:39;;;;;;;49.58;32.45;;;18.10;99.90;;;;;;5051951;28;20394;-51
2021/06/09 05:00:07;;;;;;;47.47;30.80;;;18.10;99.90;;;;;;5048631;28;20415;-52
2021/06/09 05:02:33;;;;;;;44.65;30.55;;;18.10;99.90;;;;;;5053902;28;20468;-54
2021/06/09 05:04:59;;;;;;;40.23;28.57;;;18.30;99.90;;;;;;5058613;28;20512;-50
2021/06/09 05:07:25;;;;;;;38.83;28.38;;;18.30;99.90;;;;;;5055359;28;20421;-50
2021/06/09 05:09:51;;;;;;;38.05;28.38;;;18.40;99.90;;;;;;5048955;28;20953;-50
2021/06/09 05:12:25;;;;;;;38.10;28.00;;;18.40;99.90;;;;;;5048865;28;20386;-50
2021/06/09 05:15:02;;;;;;;40.38;28.73;;;18.40;99.90;;;;;;5048082;28;21271;-50
2021/06/09 05:17:30;;;;;;;40.03;29.33;;;18.40;99.90;;;;;;5048093;28;20421;-50
2021/06/09 05:20:00;;;;;;;39.80;28.70;;;18.40;99.90;;;;;;5048241;28;20421;-51
2021/06/09 05:22:35;;;;;;;41.67;28.50;;;18.40;99.90;;;;;;5049442;28;20384;-53
2021/06/09 05:25:05;;;;;;;37.83;28.50;;;18.60;99.90;;;;;;5048923;28;20419;-51
2021/06/09 05:27:31;;;;;;;37.47;28.63;;;18.70;99.90;;;;;;5048873;28;20384;-54
2021/06/09 05:29:58;;;;;;;36.38;28.08;;;18.80;99.90;;;;;;5048177;28;20429;-51
2021/06/09 05:32:26;;;;;;;40.05;29.10;;;18.80;99.90;;;;;;5049090;28;20447;-50
2021/06/09 05:34:52;;;;;;;37.33;27.43;;;18.90;99.90;;;;;;5047850;28;20463;-50
2021/06/09 05:37:17;;;;;;;35.08;26.52;;;18.90;99.90;;;;;;5048473;28;20393;-50
2021/06/09 05:39:44;;;;;;;40.03;27.35;;;18.90;99.90;;;;;;5048947;28;20413;-50
2021/06/09 05:42:12;;;;;;;35.15;26.20;;;18.90;99.90;;;;;;5049341;28;20863;-50
2021/06/09 05:44:47;;;;;;;34.83;26.75;;;18.90;99.90;;;;;;5048682;28;20957;-50
2021/06/09 05:47:14;;;;;;;36.55;27.70;;;18.90;99.90;;;;;;5049208;28;20378;-50
2021/06/09 05:49:40;;;;;;;39.95;27.52;;;18.90;99.90;;;;;;5048744;28;20389;-50
2021/06/09 05:52:06;;;;;;;35.97;26.52;;;18.90;99.90;;;;;;5041944;28;20891;-51
2021/06/09 05:54:35;;;;;;;36.17;27.60;;;19.20;99.90;;;;;;5048464;28;20389;-50
2021/06/09 05:57:02;;;;;;;36.95;28.42;;;19.30;99.90;;;;;;5048239;28;20385;-50
2021/06/09 05:59:28;;;;;;;35.03;27.00;;;19.40;99.90;;;;;;5048515;28;20404;-50
2021/06/09 06:01:54;;;;;;;35.90;27.30;;;19.40;99.90;;;;;;5047464;28;20828;-52
2021/06/09 06:04:20;;;;;;;36.85;26.27;;;19.60;99.90;;;;;;5048502;28;20424;-50
2021/06/09 06:06:49;;;;;;;36.30;26.48;;;19.70;99.90;;;;;;5047072;28;20867;-51
2021/06/09 06:09:15;;;;;;;33.38;26.92;;;19.90;99.90;;;;;;5049023;28;20374;-51
2021/06/09 06:11:42;;;;;;;31.90;26.60;;;19.80;99.90;;;;;;5049140;28;20405;-51
2021/06/09 06:14:10;;;;;;;33.78;25.77;;;20.00;99.90;;;;;;5052632;28;20377;-50
2021/06/09 06:16:37;;;;;;;33.40;26.23;;;19.90;99.90;;;;;;5051398;28;20380;-50
2021/06/09 06:19:04;;;;;;;33.05;25.70;;;20.00;99.90;;;;;;5052279;28;20869;-50
2021/06/09 06:21:30;;;;;;;32.30;25.23;;;20.30;99.90;;;;;;5052183;28;20366;-50
2021/06/09 06:23:57;;;;;;;31.17;24.42;;;20.60;99.90;;;;;;5051246;28;20373;-50
2021/06/09 06:26:24;;;;;;;31.83;25.67;;;20.60;99.90;;;;;;5050820;28;20755;-50
2021/06/09 06:28:54;;;;;;;29.95;23.75;;;20.80;99.90;;;;;;5051076;28;20428;-48
2021/06/09 06:31:24;;;;;;;29.05;23.80;;;21.10;99.90;;;;;;5051790;28;20447;-49
2021/06/09 06:33:52;;;;;;;27.13;23.23;;;21.40;99.90;;;;;;5051378;28;20404;-49
2021/06/09 06:36:22;;;;;;;27.73;22.02;;;21.70;99.90;;;;;;5051886;28;20427;-50
2021/06/09 06:38:48;;;;;;;26.07;21.60;;;22.00;99.90;;;;;;5050782;28;20435;-49
2021/06/09 06:41:15;;;;;;;24.20;20.58;;;22.40;99.90;;;;;;5051982;28;20385;-50
2021/06/09 06:43:41;;;;;;;28.27;21.58;;;22.80;99.90;;;;;;5050813;28;20390;-49
2021/06/09 06:46:11;;;;;;;25.45;21.30;;;23.00;99.90;;;;;;5052393;28;20783;-49
2021/06/09 06:48:37;;;;;;;23.42;19.65;;;23.00;99.90;;;;;;5051135;28;20391;-49
2021/06/09 06:51:04;;;;;;;22.90;19.70;;;23.30;99.90;;;;;;5051758;28;20373;-50
2021/06/09 06:53:31;;;;;;;26.92;21.50;;;23.30;99.90;;;;;;5050847;28;20479;-49
2021/06/09 06:56:02;;;;;;;24.83;20.63;;;23.10;99.90;;;;;;5051128;28;20430;-50
2021/06/09 06:58:31;;;;;;;24.67;21.13;;;22.90;99.90;;;;;;5051074;28;20432;-50
2021/06/09 07:00:59;;;;;;;25.33;20.15;;;23.00;99.90;;;;;;5050838;28;20381;-49
2021/06/09 07:03:25;;;;;;;21.73;19.02;;;23.80;99.90;;;;;;5051492;28;20389;-50
2021/06/09 07:05:51;;;;;;;22.75;18.50;;;25.20;99.90;;;;;;5049208;28;20771;-50
2021/06/09 07:08:18;;;;;;;19.83;15.80;;;26.10;99.90;;;;;;5051287;28;20755;-50
2021/06/09 07:10:44;;;;;;;20.17;16.98;;;26.80;99.90;;;;;;5050477;28;20393;-50
2021/06/09 07:13:09;;;;;;;18.30;16.10;;;27.70;99.90;;;;;;5049602;28;20417;-50
2021/06/09 07:15:39;;;;;;;17.80;14.93;;;29.30;99.90;;;;;;5051399;28;20542;-50
2021/06/09 07:18:06;;;;;;;17.35;15.13;;;30.50;99.90;;;;;;5051177;28;20376;-51
2021/06/09 07:20:31;;;;;;;19.30;15.90;;;29.80;99.90;;;;;;5052092;28;20420;-50
2021/06/09 07:22:58;;;;;;;16.65;14.85;;;29.70;99.90;;;;;;5059766;28;20411;-50
2021/06/09 07:25:31;;;;;;;20.48;15.90;;;29.60;99.90;;;;;;5066996;28;20421;-50
2021/06/09 07:28:01;;;;;;;18.77;14.95;;;28.90;99.90;;;;;;5050408;28;20845;-49
2021/06/09 07:30:31;;;;;;;16.60;14.80;;;28.70;99.90;;;;;;5050828;28;20407;-52
2021/06/09 07:32:57;;;;;;;19.15;15.90;;;29.30;99.90;;;;;;5061829;28;20401;-50
2021/06/09 07:35:23;;;;;;;19.20;17.20;;;29.90;99.90;;;;;;5069405;28;20411;-50
2021/06/09 07:37:54;;;;;;;17.90;16.00;;;29.70;99.90;;;;;;5068051;28;20376;-50
2021/06/09 07:40:26;;;;;;;18.73;16.67;;;29.60;99.90;;;;;;5051199;28;20385;-50
2021/06/09 07:42:57;;;;;;;18.38;16.48;;;30.00;99.90;;;;;;5050132;28;20855;-50
2021/06/09 07:45:23;;;;;;;18.77;16.45;;;29.90;99.90;;;;;;5065804;28;20407;-50
2021/06/09 07:47:51;;;;;;;18.70;16.55;;;30.50;99.90;;;;;;5061408;28;20473;-51
2021/06/09 07:50:24;;;;;;;18.23;16.33;;;31.10;99.90;;;;;;5050879;28;20424;-50
2021/06/09 07:52:51;;;;;;;19.85;16.80;;;29.60;99.90;;;;;;5050333;28;20771;-50
2021/06/09 07:55:17;;;;;;;19.63;15.68;;;29.70;99.90;;;;;;5049781;28;20520;-49
2021/06/09 07:57:44;;;;;;;20.40;17.13;;;30.00;99.90;;;;;;5062314;28;20380;-50
2021/06/09 08:00:12;;;;;;;19.80;16.70;;;29.90;99.90;;;;;;5065807;28;20919;-50
2021/06/09 08:02:40;;;;;;;20.75;16.17;;;29.80;99.90;;;;;;5049875;28;20408;-54
2021/06/09 08:05:07;;;;;;;19.50;17.40;;;30.20;99.90;;;;;;5050005;28;20429;-49
2021/06/09 08:07:38;;;;;;;20.38;17.73;;;30.30;99.90;;;;;;5050227;28;20378;-50
2021/06/09 08:10:07;;;;;;;19.10;17.00;;;31.20;99.90;;;;;;5050286;28;20427;-49
2021/06/09 08:12:33;;;;;;;21.00;16.90;;;31.50;99.90;;;;;;5050782;28;20408;-50
2021/06/09 08:15:00;;;;;;;19.80;17.33;;;31.20;99.90;;;;;;5058295;28;20397;-50
2021/06/09 08:17:26;;;;;;;20.65;18.00;;;31.50;99.90;;;;;;5068711;28;20399;-50
2021/06/09 08:19:52;;;;;;;19.40;17.23;;;33.20;98.00;;;;;;5055142;28;20392;-50
2021/06/09 08:22:17;;;;;;;19.88;17.67;;;32.80;97.60;;;;;;5058336;28;20457;-50
2021/06/09 08:24:43;;;;;;;20.42;17.00;;;32.30;98.00;;;;;;5055658;28;20424;-50
2021/06/09 08:27:09;;;;;;;18.60;16.60;;;32.70;98.70;;;;;;5069901;28;20399;-52
2021/06/09 08:29:37;;;;;;;20.17;18.00;;;32.40;97.80;;;;;;5070157;28;20371;-50
2021/06/09 08:32:04;;;;;;;19.70;17.13;;;32.10;97.60;;;;;;5069816;28;20412;-50
2021/06/09 08:34:30;;;;;;;20.30;18.20;;;31.80;99.10;;;;;;5058192;28;20408;-50
2021/06/09 08:36:56;;;;;;;18.88;16.88;;;31.70;99.40;;;;;;5048681;28;20493;-50
2021/06/09 08:39:22;;;;;;;19.00;17.00;;;32.40;98.30;;;;;;5060016;28;20382;-50
2021/06/09 08:41:50;;;;;;;20.15;18.05;;;33.50;97.20;;;;;;5051219;28;20378;-50
2021/06/09 08:44:15;;;;;;;20.50;18.40;;;34.00;94.00;;;;;;5049732;28;20427;-50
2021/06/09 08:46:42;;;;;;;20.58;18.48;;;33.60;92.70;;;;;;5049036;28;20926;-50
2021/06/09 08:49:08;;;;;;;19.88;17.77;;;33.70;93.90;;;;;;5068807;28;20856;-50
2021/06/09 08:51:35;;;;;;;20.10;18.00;;;33.20;94.70;;;;;;5069356;28;20388;-50
2021/06/09 08:54:03;;;;;;;20.43;18.23;;;33.40;94.20;;;;;;5067211;28;20389;-50
2021/06/09 08:56:31;;;;;;;20.67;18.40;;;33.50;92.40;;;;;;5068920;28;20881;-50
2021/06/09 08:58:58;;;;;;;19.98;17.88;;;32.60;94.40;;;;;;5068690;28;20913;-50
2021/06/09 09:01:25;;;;;;;21.00;17.40;;;32.70;94.80;;;;;;5056451;28;20386;-51
2021/06/09 09:03:52;;;;;;;19.67;17.38;;;32.70;94.90;;;;;;5064464;28;20421;-50
2021/06/09 09:06:20;;;;;;;20.90;18.00;;;32.80;94.00;;;;;;5057873;28;20484;-51
2021/06/09 09:08:46;;;;;;;19.00;17.00;;;32.60;94.70;;;;;;5055425;28;20397;-50
2021/06/09 09:11:11;;;;;;;19.25;17.25;;;32.80;95.20;;;;;;5056036;28;20871;-50
2021/06/09 09:13:39;;;;;;;22.60;18.50;;;33.00;94.30;;;;;;5056845;28;20503;-54
2021/06/09 09:16:05;;;;;;;21.23;18.92;;;32.70;93.60;;;;;;5054020;28;20754;-49
2021/06/09 09:18:45;;;;;;;21.55;18.25;;;31.40;95.40;;;;;;5051184;28;20397;-50
2021/06/09 09:21:13;;;;;;;21.92;18.70;;;30.40;98.40;;;;;;5059420;28;20400;-50
2021/06/09 09:23:49;;;;;;;20.92;18.42;;;30.60;99.10;;;;;;5048929;28;20401;-52
2021/06/09 09:26:25;;;;;;;21.50;17.30;;;31.50;97.10;;;;;;5051238;28;20496;-49
2021/06/09 09:29:06;;;;;;;19.90;17.13;;;31.70;95.70;;;;;;5058515;28;20399;-50
2021/06/09 09:31:48;;;;;;;18.47;16.53;;;32.40;96.80;;;;;;5054355;28;20421;-50
2021/06/09 09:34:33;;;;;;;18.85;16.85;;;33.90;93.10;;;;;;5036509;28;20422;-51
2021/06/09 09:37:11;;;;;;;20.20;18.10;;;34.40;91.10;;;;;;5028246;28;20387;-50
2021/06/09 09:39:39;;;;;;;22.27;18.67;;;33.10;92.30;;;;;;5030723;28;20829;-50
2021/06/09 09:42:35;;;;;;;20.50;17.30;;;31.90;94.30;;;;;;5052278;28;20488;-50
2021/06/09 09:45:20;;;;;;;20.63;18.52;;;31.50;94.20;;;;;;5065025;28;21005;-50
2021/06/09 09:48:10;;;;;;;21.40;18.30;;;30.50;95.90;;;;;;5050518;28;20401;-50
2021/06/09 09:50:35;;;;;;;20.63;17.50;;;30.00;98.00;;;;;;5054047;28;20392;-50
2021/06/09 09:55:55;;;;;;;19.65;17.40;;;30.30;98.10;;;;;;5054301;28;20451;-50
2021/06/09 09:58:21;;;;;;;21.33;18.03;;;31.00;97.30;;;;;;5055074;28;20896;-50
2021/06/09 10:00:47;;;;;;;20.03;17.70;;;32.10;94.00;;;;;;5057422;28;20485;-49
2021/06/09 10:03:16;;;;;;;21.20;17.90;;;32.50;93.60;;;;;;5059468;28;20524;-50
2021/06/09 10:05:42;;;;;;;21.40;17.15;;;31.90;93.20;;;;;;5051223;28;20738;-52
2021/06/09 10:08:09;;;;;;;17.88;15.88;;;31.60;93.80;;;;;;5052138;28;20417;-49
2021/06/09 10:10:34;;;;;;;19.30;17.20;;;32.20;93.90;;;;;;5052193;28;20901;-51
2021/06/09 10:13:17;;;;;;;20.75;16.45;;;32.50;93.50;;;;;;5051742;28;20515;-50
2021/06/09 10:15:49;;;;;;;16.83;15.02;;;33.10;92.60;;;;;;5051450;28;20393;-53
2021/06/09 10:18:19;;;;;;;20.25;17.58;;;34.10;91.20;;;;;;5052008;28;20472;-50
2021/06/09 10:20:48;;;;;;;20.70;18.17;;;34.30;87.60;;;;;;5052271;28;20440;-50
2021/06/09 10:23:39;;;;;;;19.85;17.70;;;34.60;84.50;;;;;;5052164;28;20858;-50
2021/06/09 10:26:11;;;;;;;22.88;19.77;;;34.10;87.30;;;;;;5051986;28;20413;-51
2021/06/09 10:28:56;;;;;;;21.87;18.57;;;33.70;85.50;;;;;;5052263;28;20432;-50
2021/06/09 10:31:26;;;;;;;22.50;19.70;;;32.60;90.60;;;;;;5052443;28;20401;-49
2021/06/09 10:33:52;;;;;;;22.58;18.50;;;32.50;90.00;;;;;;5051396;28;20408;-49
2021/06/09 10:36:19;;;;;;;21.05;18.85;;;32.50;91.50;;;;;;5051684;28;20389;-49
2021/06/09 10:38:46;;;;;;;21.02;18.40;;;32.10;90.40;;;;;;5051120;28;20736;-49
2021/06/09 10:41:14;;;;;;;20.38;17.30;;;31.00;94.20;;;;;;5051683;28;20377;-49
2021/06/09 10:43:47;;;;;;;20.52;17.52;;;30.10;93.40;;;;;;5050594;28;20417;-50
2021/06/09 10:46:18;;;;;;;20.95;18.75;;;29.60;93.70;;;;;;5051887;28;20412;-49
2021/06/09 10:48:45;;;;;;;20.63;18.38;;;29.70;95.80;;;;;;5051356;28;20445;-49
2021/06/09 10:51:11;;;;;;;18.95;16.90;;;29.60;94.10;;;;;;5051495;28;20928;-49
2021/06/09 10:53:37;;;;;;;20.80;16.53;;;29.50;96.60;;;;;;5052513;28;20394;-50
2021/06/09 10:56:04;;;;;;;21.20;18.57;;;29.50;96.00;;;;;;5051170;28;20377;-49
2021/06/09 10:58:29;;;;;;;20.90;17.50;;;29.50;96.90;;;;;;5049784;28;20428;-49
2021/06/09 11:00:58;;;;;;;22.00;17.77;;;29.40;96.80;;;;;;5049952;28;20429;-49
2021/06/09 11:03:26;;;;;;;21.05;17.65;;;29.20;97.60;;;;;;5050821;28;20392;-49
2021/06/09 11:05:51;;;;;;;20.95;18.20;;;28.80;95.90;;;;;;5050257;28;20409;-49
2021/06/09 11:08:17;;;;;;;22.20;18.70;;;28.20;98.70;;;;;;5050301;28;20752;-49
2021/06/09 11:10:45;;;;;;;20.93;18.63;;;27.60;99.90;;;;;;5050181;28;20712;-53
2021/06/09 11:13:30;;;;;;;20.30;17.38;;;27.10;99.90;;;;;;5050897;28;20460;-49
2021/06/09 11:16:10;;;;;;;20.15;17.92;;;26.70;99.90;;;;;;5050271;28;20389;-49
2021/06/09 11:18:47;;;;;;;21.33;18.53;;;26.40;99.90;;;;;;5051662;28;20457;-49
2021/06/09 11:21:24;;;;;;;22.67;17.20;;;26.20;99.90;;;;;;5050932;28;20385;-49
2021/06/09 11:23:50;;;;;;;18.65;16.25;;;26.00;99.90;;;;;;5051054;28;20457;-49
2021/06/09 11:26:26;;;;;;;19.60;15.98;;;25.80;99.90;;;;;;5051480;28;20976;-49
2021/06/09 11:28:52;;;;;;;19.58;15.98;;;25.70;99.90;;;;;;5050734;28;20457;-49
2021/06/09 11:31:26;;;;;;;21.77;18.17;;;25.50;99.90;;;;;;5051016;28;20909;-50
2021/06/09 11:33:56;;;;;;;24.13;18.98;;;25.10;99.90;;;;;;5050177;28;20412;-50
2021/06/09 11:36:22;;;;;;;27.80;20.08;;;25.00;99.90;;;;;;5051022;28;20393;-49
2021/06/09 11:38:50;;;;;;;27.45;21.20;;;24.80;99.90;;;;;;5050177;28;20381;-50
2021/06/09 11:41:18;;;;;;;28.08;22.65;;;24.50;99.90;;;;;;5050529;28;20813;-50
2021/06/09 11:43:45;;;;;;;28.58;23.30;;;24.20;99.90;;;;;;5049820;28;20459;-50
2021/06/09 11:46:16;;;;;;;26.05;22.10;;;24.00;99.90;;;;;;5050436;28;20401;-50
2021/06/09 11:49:03;;;;;;;30.42;23.83;;;23.80;99.90;;;;;;5049844;28;20476;-50
2021/06/09 11:51:37;;;;;;;30.02;23.52;;;23.80;99.90;;;;;;5048847;28;20731;-55
2021/06/09 11:54:25;;;;;;;27.92;22.75;;;23.90;99.90;;;;;;5050628;28;20374;-50
2021/06/09 11:57:02;;;;;;;28.20;22.90;;;24.10;99.90;;;;;;5049902;28;20381;-50
2021/06/09 11:59:34;;;;;;;27.10;23.10;;;24.30;99.90;;;;;;5050321;28;20472;-50
2021/06/09 12:02:16;;;;;;;25.67;22.20;;;24.50;99.90;;;;;;5049755;28;20899;-50
2021/06/09 12:04:47;;;;;;;23.80;20.50;;;24.80;99.90;;;;;;5049436;28;20500;-50
2021/06/09 12:07:19;;;;;;;23.42;19.60;;;25.20;99.90;;;;;;5050349;28;20843;-50
2021/06/09 12:09:47;;;;;;;19.50;16.20;;;25.80;99.90;;;;;;5048917;28;20930;-51
2021/06/09 12:12:25;;;;;;;19.27;16.40;;;26.10;99.90;;;;;;5050609;28;20734;-51
2021/06/09 12:14:53;;;;;;;18.55;15.60;;;26.30;99.90;;;;;;5049314;28;20430;-51
2021/06/09 12:17:20;;;;;;;20.00;16.05;;;26.50;99.90;;;;;;5050342;28;20443;-50
2021/06/09 12:19:52;;;;;;;18.33;16.10;;;26.40;99.90;;;;;;5049562;28;20943;-50
2021/06/09 12:22:21;;;;;;;19.73;17.00;;;26.40;99.90;;;;;;5050071;28;20385;-49
2021/06/09 12:25:04;;;;;;;14.38;10.80;;;26.80;99.90;;;;;;5049842;28;20886;-50
2021/06/09 12:27:30;;;;;;;14.57;10.80;;;26.80;99.90;;;;;;5050678;28;20373;-49
2021/06/09 12:29:56;;;;;;;14.63;10.73;;;27.10;99.90;;;;;;5049286;28;20465;-48
2021/06/09 12:32:26;;;;;;;12.20;9.93;;;27.30;99.90;;;;;;5049535;28;20870;-48
2021/06/09 12:34:55;;;;;;;13.80;10.68;;;27.60;99.90;;;;;;5049249;28;20397;-49
2021/06/09 12:37:22;;;;;;;12.70;9.98;;;27.80;99.90;;;;;;5050048;28;20393;-49
2021/06/09 12:40:12;;;;;;;13.10;11.35;;;28.00;99.90;;;;;;5049101;28;20920;-49
2021/06/09 12:42:39;;;;;;;12.60;10.87;;;28.20;99.90;;;;;;5049457;28;21254;-49
2021/06/09 12:45:07;;;;;;;14.85;11.95;;;28.60;99.90;;;;;;5048832;28;20404;-49